Terminal Aerodrome Forecast
Issued by NWS Des Moines, IA

Home | Current Version | Previous Version | Text Only | Print | Product List | Glossary On
Versions: 1 2 3 4 5 6 7 8 9 10 11 12 13 14 15 16 17
000
FTUS43 KDMX 250520
TAFDSM
TAF
KDSM 250520Z 2506/2606 VRB02KT P6SM SKC
     FM251300 16006KT P6SM FEW150
     FM252100 15009KT P6SM FEW035 BKN120
     FM260500 13005KT P6SM BKN050=

USA.gov is the U.S. government's official web portal to all federal, state and local government web resources and services.